createdAt,value
2022-11-19T00:02:20.051Z,2.60
2022-11-19T00:04:49.386Z,2.87
2022-11-19T00:07:17.368Z,2.30
2022-11-19T00:09:45.286Z,2.10
2022-11-19T00:12:31.446Z,2.07
2022-11-19T00:14:59.342Z,2.37
2022-11-19T00:17:27.233Z,1.77
2022-11-19T00:19:56.561Z,2.30
2022-11-19T00:22:24.452Z,1.80
2022-11-19T00:24:52.430Z,1.80
2022-11-19T00:27:20.401Z,1.97
2022-11-19T00:29:48.318Z,1.63
2022-11-19T00:32:16.260Z,1.50
2022-11-19T00:34:44.214Z,2.20
2022-11-19T00:37:13.610Z,1.90
2022-11-19T00:39:41.542Z,1.73
2022-11-19T00:42:11.036Z,1.37
2022-11-19T00:44:38.927Z,1.83
2022-11-19T00:47:06.942Z,1.63
2022-11-19T00:49:34.839Z,1.73
2022-11-19T00:52:02.781Z,1.60
2022-11-19T00:54:32.246Z,1.77
2022-11-19T00:57:00.365Z,2.40
2022-11-19T00:59:28.256Z,1.60
2022-11-19T01:01:56.147Z,1.40
2022-11-19T01:04:24.092Z,1.53
2022-11-19T01:06:52.146Z,1.40
2022-11-19T01:09:20.615Z,1.30
2022-11-19T01:11:50.158Z,1.60
2022-11-19T01:14:18.060Z,1.40
2022-11-19T01:16:45.969Z,1.40
2022-11-19T01:19:16.965Z,1.17
2022-11-19T01:21:45.652Z,1.30
2022-11-19T01:24:13.566Z,1.20
2022-11-19T01:26:45.606Z,1.40
2022-11-19T01:29:15.571Z,1.30
2022-11-19T01:31:43.479Z,1.97
2022-11-19T01:34:11.414Z,1.00
2022-11-19T01:36:39.534Z,1.27
2022-11-19T01:39:07.437Z,1.10
2022-11-19T01:41:35.381Z,1.53
2022-11-19T01:44:04.768Z,1.23
2022-11-19T01:46:34.793Z,1.20
2022-11-19T01:49:04.254Z,1.57
2022-11-19T01:51:34.026Z,1.20
2022-11-19T01:54:04.831Z,1.20
2022-11-19T01:56:32.867Z,1.27
2022-11-19T01:59:03.159Z,1.43
2022-11-19T02:01:32.423Z,1.40
2022-11-19T02:04:02.615Z,1.67
2022-11-19T02:06:31.051Z,1.30
2022-11-19T02:08:58.952Z,1.50
2022-11-19T02:11:44.702Z,1.30
2022-11-19T02:14:23.588Z,1.30
2022-11-19T02:16:55.607Z,1.30
2022-11-19T02:19:40.479Z,1.40
2022-11-19T02:22:16.661Z,1.20
2022-11-19T02:24:49.146Z,1.57
2022-11-19T02:27:34.870Z,1.47
2022-11-19T02:30:11.886Z,1.50
2022-11-19T02:32:50.250Z,1.30
2022-11-19T02:35:20.683Z,1.30
2022-11-19T02:37:51.097Z,1.70
2022-11-19T02:40:23.199Z,1.73
2022-11-19T02:42:54.556Z,1.13
2022-11-19T02:45:27.694Z,1.70
2022-11-19T02:47:57.935Z,2.10
2022-11-19T02:50:26.886Z,1.80
2022-11-19T02:52:55.450Z,1.43
2022-11-19T02:55:24.051Z,2.00
2022-11-19T02:57:53.653Z,1.47
2022-11-19T03:00:39.308Z,2.47
2022-11-19T03:03:27.388Z,1.60
2022-11-19T03:05:59.666Z,1.40
2022-11-19T03:08:28.242Z,1.37
2022-11-19T03:11:00.453Z,1.30
2022-11-19T03:13:49.749Z,1.60
2022-11-19T03:16:39.856Z,1.57
2022-11-19T03:19:12.820Z,2.63
2022-11-19T03:21:43.418Z,1.40
2022-11-19T03:24:14.636Z,1.80
2022-11-19T03:26:45.921Z,2.57
2022-11-19T03:29:18.483Z,1.43
2022-11-19T03:31:48.982Z,2.27
2022-11-19T03:34:20.107Z,1.57
2022-11-19T03:36:49.555Z,1.50
2022-11-19T03:39:18.688Z,1.43
2022-11-19T03:41:48.155Z,1.20
2022-11-19T03:44:17.687Z,1.23
2022-11-19T03:46:46.787Z,1.43
2022-11-19T03:49:18.923Z,1.37
2022-11-19T03:51:51.238Z,1.83
2022-11-19T03:54:19.251Z,1.93
2022-11-19T03:56:50.352Z,1.80
2022-11-19T03:59:18.847Z,1.40
2022-11-19T04:01:47.449Z,1.40
2022-11-19T04:04:32.771Z,1.57
2022-11-19T04:07:02.121Z,1.40
2022-11-19T04:09:30.077Z,1.20
2022-11-19T04:11:58.040Z,1.30
2022-11-19T04:14:26.037Z,1.60
2022-11-19T04:16:53.939Z,1.20
2022-11-19T04:19:22.031Z,1.37
2022-11-19T04:21:50.117Z,1.10
2022-11-19T04:24:19.630Z,1.07
2022-11-19T04:26:47.568Z,1.10
2022-11-19T04:29:18.033Z,1.20
2022-11-19T04:31:48.224Z,1.30
2022-11-19T04:34:16.187Z,1.60
2022-11-19T04:36:44.094Z,1.30
2022-11-19T04:39:12.700Z,1.40
2022-11-19T04:41:42.307Z,1.37
2022-11-19T04:44:10.198Z,1.40
2022-11-19T04:46:38.244Z,1.57
2022-11-19T04:49:06.157Z,1.30
2022-11-19T04:51:34.043Z,1.53
2022-11-19T04:54:02.010Z,1.67
2022-11-19T04:56:30.000Z,1.47
2022-11-19T04:58:59.312Z,1.40
2022-11-19T05:01:27.315Z,1.50
2022-11-19T05:03:55.247Z,1.50
2022-11-19T05:06:23.178Z,1.90
2022-11-19T05:08:51.081Z,1.43
2022-11-19T05:11:21.615Z,1.50
2022-11-19T05:13:52.608Z,1.20
2022-11-19T05:16:21.932Z,1.40
2022-11-19T05:18:52.219Z,1.33
2022-11-19T05:21:20.288Z,1.63
2022-11-19T05:23:48.360Z,1.40
2022-11-19T05:26:16.262Z,1.37
2022-11-19T05:28:44.164Z,1.50
2022-11-19T05:31:12.129Z,1.20
2022-11-19T05:33:41.542Z,1.60
2022-11-19T05:36:10.753Z,1.10
2022-11-19T05:38:38.790Z,1.67
2022-11-19T05:41:09.145Z,1.40
2022-11-19T05:43:37.090Z,1.53
2022-11-19T05:46:05.000Z,1.57
2022-11-19T05:48:32.892Z,1.60
2022-11-19T05:51:02.241Z,1.30
2022-11-19T05:53:30.172Z,1.60
2022-11-19T05:55:58.311Z,1.33
2022-11-19T05:58:26.460Z,1.60
2022-11-19T06:00:56.166Z,1.70
2022-11-19T06:03:24.059Z,1.40
2022-11-19T06:05:52.131Z,1.33
2022-11-19T06:08:21.467Z,1.60
2022-11-19T06:10:49.523Z,1.60
2022-11-19T06:13:17.605Z,1.70
2022-11-19T06:15:45.542Z,1.80
2022-11-19T06:18:13.765Z,1.60
2022-11-19T06:20:42.180Z,1.80
2022-11-19T06:23:10.132Z,1.60
2022-11-19T06:25:39.462Z,1.73
2022-11-19T06:28:07.558Z,1.60
2022-11-19T06:30:35.470Z,1.90
2022-11-19T06:33:03.373Z,2.30
2022-11-19T06:35:31.310Z,1.90
2022-11-19T06:37:59.654Z,2.33
2022-11-19T06:40:27.707Z,2.50
2022-11-19T06:42:57.028Z,1.80
2022-11-19T06:45:24.945Z,1.77
2022-11-19T06:47:52.877Z,2.10
2022-11-19T06:50:20.935Z,1.87
2022-11-19T06:52:48.937Z,1.90
2022-11-19T06:55:16.977Z,2.10
2022-11-19T06:57:44.932Z,2.30
2022-11-19T07:00:15.206Z,2.43
2022-11-19T07:02:43.154Z,1.97
2022-11-19T07:05:11.297Z,1.80
2022-11-19T07:07:39.934Z,1.80
2022-11-19T07:10:08.544Z,1.83
2022-11-19T07:12:36.579Z,1.50
2022-11-19T07:15:05.034Z,1.80
2022-11-19T07:17:34.451Z,2.00
2022-11-19T07:20:02.420Z,1.90
2022-11-19T07:22:30.336Z,1.87
2022-11-19T07:24:58.290Z,1.87
2022-11-19T07:27:26.183Z,2.20
2022-11-19T07:29:54.084Z,1.90
2022-11-19T07:32:22.733Z,1.50
2022-11-19T07:34:52.269Z,1.57
2022-11-19T07:37:20.210Z,1.70
2022-11-19T07:39:48.158Z,2.00
2022-11-19T07:42:33.639Z,2.27
2022-11-19T07:45:01.569Z,1.53
2022-11-19T07:47:29.461Z,1.30
2022-11-19T07:49:58.858Z,1.40
2022-11-19T07:52:26.852Z,1.70
2022-11-19T07:54:54.771Z,1.67
2022-11-19T07:57:29.653Z,1.50
2022-11-19T07:59:58.176Z,1.70
2022-11-19T08:02:26.073Z,1.90
2022-11-19T08:04:54.010Z,1.93
2022-11-19T08:07:26.453Z,1.33
2022-11-19T08:09:54.554Z,1.50
2022-11-19T08:12:22.993Z,1.50
2022-11-19T08:14:51.005Z,1.80
2022-11-19T08:17:36.549Z,1.70
2022-11-19T08:20:04.630Z,1.93
2022-11-19T08:22:33.965Z,1.50
2022-11-19T08:25:01.897Z,1.60
2022-11-19T08:27:29.853Z,1.80
2022-11-19T08:29:57.756Z,1.70
2022-11-19T08:32:25.875Z,1.30
2022-11-19T08:34:54.032Z,1.33
2022-11-19T08:37:21.926Z,1.37
2022-11-19T08:39:51.213Z,1.53
2022-11-19T08:42:36.794Z,1.73
2022-11-19T08:45:05.247Z,1.00
2022-11-19T08:47:33.161Z,1.20
2022-11-19T08:50:01.116Z,1.30
2022-11-19T08:52:29.002Z,1.20
2022-11-19T08:54:58.326Z,1.37
2022-11-19T08:57:26.271Z,1.30
2022-11-19T08:59:54.276Z,1.20
2022-11-19T09:02:22.212Z,1.13
2022-11-19T09:04:50.163Z,1.17
2022-11-19T09:07:18.266Z,1.10
2022-11-19T09:09:46.179Z,0.80
2022-11-19T09:12:17.216Z,1.43
2022-11-19T09:14:45.152Z,1.10
2022-11-19T09:17:13.532Z,1.53
2022-11-19T09:19:41.464Z,1.30
2022-11-19T09:22:09.361Z,1.10
2022-11-19T09:24:37.246Z,1.50
2022-11-19T09:27:05.312Z,1.47
2022-11-19T09:29:34.661Z,1.80
2022-11-19T09:32:02.565Z,2.40
2022-11-19T09:34:30.499Z,1.30
2022-11-19T09:36:58.676Z,1.50
2022-11-19T09:39:26.689Z,1.70
2022-11-19T09:41:57.863Z,1.50
2022-11-19T09:44:40.870Z,1.50
2022-11-19T09:47:17.354Z,1.63
2022-11-19T09:49:47.108Z,1.97
2022-11-19T09:52:16.151Z,1.77
2022-11-19T09:54:46.307Z,1.80
2022-11-19T09:57:16.393Z,1.97
2022-11-19T09:59:45.765Z,1.30
2022-11-19T10:02:18.234Z,1.63
2022-11-19T10:04:46.909Z,1.23
2022-11-19T10:07:22.725Z,1.50
2022-11-19T10:09:56.291Z,1.57
2022-11-19T10:12:30.284Z,1.50
2022-11-19T10:15:11.576Z,1.30
2022-11-19T10:17:45.392Z,1.37
2022-11-19T10:20:19.517Z,1.60
2022-11-19T10:22:56.987Z,1.80
2022-11-19T10:25:28.784Z,2.03
2022-11-19T10:28:01.977Z,1.80
2022-11-19T10:30:32.344Z,1.40
2022-11-19T10:33:02.214Z,1.83
2022-11-19T10:35:31.866Z,2.00
2022-11-19T10:38:00.854Z,2.00
2022-11-19T10:40:31.736Z,1.80
2022-11-19T10:43:02.887Z,1.67
2022-11-19T10:45:32.456Z,2.57
2022-11-19T10:48:08.919Z,1.60
2022-11-19T10:50:37.349Z,2.00
2022-11-19T10:53:08.572Z,1.70
2022-11-19T10:55:38.513Z,2.40
2022-11-19T10:58:12.710Z,1.87
2022-11-19T11:00:43.060Z,1.80
2022-11-19T11:03:16.665Z,1.70
2022-11-19T11:05:55.640Z,1.50
2022-11-19T11:08:23.840Z,1.50
2022-11-19T11:10:52.221Z,1.63
2022-11-19T11:13:42.829Z,1.17
2022-11-19T11:16:13.487Z,1.43
2022-11-19T11:18:41.828Z,1.33
2022-11-19T11:21:13.377Z,1.90
2022-11-19T11:23:49.765Z,1.80
2022-11-19T11:26:20.591Z,1.80
2022-11-19T11:28:55.559Z,1.43
2022-11-19T11:31:30.971Z,1.77
2022-11-19T11:33:59.034Z,2.27
2022-11-19T11:36:28.336Z,1.50
2022-11-19T11:38:58.882Z,1.47
2022-11-19T11:44:22.836Z,1.97
2022-11-19T11:46:52.861Z,2.00
2022-11-19T11:49:29.040Z,1.83
2022-11-19T11:51:59.765Z,2.00
2022-11-19T11:54:27.713Z,2.00
2022-11-19T11:56:55.637Z,1.50
2022-11-19T11:59:25.511Z,2.23
2022-11-19T12:01:58.772Z,7.13
2022-11-19T12:04:26.720Z,1.57
2022-11-19T12:06:59.795Z,1.93
2022-11-19T12:09:32.171Z,1.60
2022-11-19T12:12:03.128Z,1.43
2022-11-19T12:14:32.113Z,1.40
2022-11-19T12:17:17.881Z,1.60
2022-11-19T12:19:55.808Z,1.53
2022-11-19T12:22:27.894Z,1.40
2022-11-19T12:25:06.684Z,1.50
2022-11-19T12:27:39.183Z,1.63
2022-11-19T12:30:10.531Z,1.47
2022-11-19T12:32:51.705Z,1.33
2022-11-19T12:35:31.487Z,1.60
2022-11-19T12:38:10.339Z,1.20
2022-11-19T12:40:44.283Z,2.00
2022-11-19T12:43:18.758Z,1.40
2022-11-19T12:45:50.982Z,0.97
2022-11-19T12:48:31.306Z,0.93
2022-11-19T12:51:03.127Z,1.30
2022-11-19T12:53:43.489Z,0.87
2022-11-19T12:56:17.203Z,1.00
2022-11-19T12:58:50.393Z,0.77
2022-11-19T13:01:21.207Z,1.07
2022-11-19T13:03:56.512Z,0.63
2022-11-19T13:06:30.389Z,0.90
2022-11-19T13:09:00.586Z,1.27
2022-11-19T13:11:36.531Z,0.83
2022-11-19T13:14:07.154Z,1.20
2022-11-19T13:16:35.606Z,1.43
2022-11-19T13:19:08.775Z,1.00
2022-11-19T13:21:41.960Z,1.27
2022-11-19T13:24:13.086Z,1.27
2022-11-19T13:26:41.001Z,1.30
2022-11-19T13:29:20.194Z,1.60
2022-11-19T13:31:49.964Z,1.63
2022-11-19T13:34:19.212Z,1.40
2022-11-19T13:36:53.817Z,1.47
2022-11-19T13:39:25.764Z,1.20
2022-11-19T13:42:12.797Z,1.90
2022-11-19T13:44:41.671Z,1.50
2022-11-19T13:47:12.797Z,1.70
2022-11-19T13:49:43.696Z,1.60
2022-11-19T13:52:19.383Z,1.60
2022-11-19T13:54:47.487Z,1.73
2022-11-19T13:57:25.760Z,2.03
2022-11-19T13:59:58.234Z,1.63
2022-11-19T14:02:44.203Z,1.70
2022-11-19T14:05:29.001Z,1.57
2022-11-19T14:08:04.830Z,1.50
2022-11-19T14:10:37.226Z,1.17
2022-11-19T14:13:12.839Z,1.80
2022-11-19T14:16:24.169Z,1.20
2022-11-19T14:19:25.966Z,1.10
2022-11-19T14:22:13.892Z,2.03
2022-11-19T14:25:16.362Z,1.83
2022-11-19T14:27:45.075Z,1.40
2022-11-19T14:30:14.268Z,1.50
2022-11-19T14:32:47.417Z,0.90
2022-11-19T14:35:30.286Z,1.10
2022-11-19T14:37:59.690Z,1.13
2022-11-19T14:40:29.606Z,1.10
2022-11-19T14:43:44.411Z,1.30
2022-11-19T14:46:28.680Z,1.60
2022-11-19T14:49:01.357Z,1.70
2022-11-19T14:51:30.799Z,1.23
2022-11-19T14:54:01.801Z,2.17
2022-11-19T14:56:31.471Z,1.30
2022-11-19T14:59:02.814Z,1.20
2022-11-19T15:01:30.733Z,1.40
2022-11-19T15:04:00.618Z,1.30
2022-11-19T15:06:29.047Z,1.57
2022-11-19T15:08:59.256Z,1.43
2022-11-19T15:11:47.152Z,1.17
2022-11-19T15:14:38.396Z,1.50
2022-11-19T15:17:08.811Z,1.40
2022-11-19T15:19:41.819Z,0.80
2022-11-19T15:22:29.526Z,1.50
2022-11-19T15:25:13.988Z,1.20
2022-11-19T15:27:54.453Z,1.07
2022-11-19T15:30:25.263Z,1.17
2022-11-19T15:33:14.887Z,1.20
2022-11-19T15:36:06.913Z,2.30
2022-11-19T15:38:37.263Z,1.07
2022-11-19T15:41:06.374Z,1.10
2022-11-19T15:43:37.467Z,1.20
2022-11-19T15:46:07.464Z,1.70
2022-11-19T15:48:40.590Z,1.33
2022-11-19T15:51:08.946Z,1.20
2022-11-19T15:53:36.859Z,2.10
2022-11-19T15:56:06.136Z,1.10
2022-11-19T15:58:36.704Z,1.47
2022-11-19T16:01:05.030Z,1.60
2022-11-19T16:03:33.646Z,1.40
2022-11-19T16:06:06.632Z,1.67
2022-11-19T16:08:34.713Z,1.60
2022-11-19T16:11:20.965Z,1.30
2022-11-19T16:14:09.198Z,1.43
2022-11-19T16:16:50.949Z,1.60
2022-11-19T16:19:19.290Z,1.87
2022-11-19T16:21:50.479Z,1.40
2022-11-19T16:24:36.676Z,1.60
2022-11-19T16:27:05.511Z,1.40
2022-11-19T16:29:37.123Z,1.40
2022-11-19T16:32:05.795Z,1.50
2022-11-19T16:34:34.370Z,1.77
2022-11-19T16:37:04.036Z,1.90
2022-11-19T16:39:33.003Z,2.03
2022-11-19T16:42:22.907Z,1.50
2022-11-19T16:44:51.540Z,2.80
2022-11-19T16:47:22.667Z,1.60
2022-11-19T16:49:59.025Z,1.73
2022-11-19T16:52:42.440Z,1.83
2022-11-19T16:55:25.368Z,2.23
2022-11-19T16:57:54.536Z,2.03
2022-11-19T17:00:23.442Z,1.63
2022-11-19T17:02:51.948Z,1.97
2022-11-19T17:05:21.035Z,1.80
2022-11-19T17:07:51.168Z,2.40
2022-11-19T17:10:30.708Z,1.60
2022-11-19T17:12:59.885Z,2.10
2022-11-19T17:15:35.204Z,1.67
2022-11-19T17:18:09.165Z,2.17
2022-11-19T17:21:00.926Z,1.87
2022-11-19T17:23:31.430Z,1.80
2022-11-19T17:26:00.034Z,2.00
2022-11-19T17:28:30.201Z,2.00
2022-11-19T17:30:58.303Z,1.50
2022-11-19T17:33:26.248Z,2.17
2022-11-19T17:35:54.189Z,2.00
2022-11-19T17:38:24.069Z,1.70
2022-11-19T17:40:54.310Z,2.00
2022-11-19T17:43:41.323Z,2.17
2022-11-19T17:46:09.248Z,2.00
2022-11-19T17:48:39.487Z,1.80
2022-11-19T17:51:07.638Z,3.13
2022-11-19T17:53:35.586Z,2.00
2022-11-19T17:56:05.109Z,2.20
2022-11-19T17:58:33.013Z,2.40
2022-11-19T18:01:00.966Z,1.77
2022-11-19T18:03:29.051Z,2.27
2022-11-19T18:05:57.116Z,2.23
2022-11-19T18:08:26.367Z,1.90
2022-11-19T18:10:54.716Z,1.90
2022-11-19T18:13:28.760Z,2.50
2022-11-19T18:15:57.861Z,1.93
2022-11-19T18:18:25.850Z,2.13
2022-11-19T18:21:01.699Z,1.80
2022-11-19T18:23:30.006Z,2.07
2022-11-19T18:25:58.093Z,2.37
2022-11-19T18:28:27.482Z,2.33
2022-11-19T18:30:55.541Z,2.13
2022-11-19T18:33:23.550Z,2.10
2022-11-19T18:35:51.475Z,2.40
2022-11-19T18:38:19.454Z,2.40
2022-11-19T18:40:47.503Z,2.87
2022-11-19T18:43:37.443Z,2.63
2022-11-19T18:46:09.204Z,2.27
2022-11-19T18:48:37.121Z,2.13
2022-11-19T18:51:05.146Z,3.17
2022-11-19T18:53:33.106Z,2.37
2022-11-19T18:56:01.025Z,2.20
2022-11-19T18:58:28.920Z,3.07
2022-11-19T19:00:56.946Z,2.90
2022-11-19T19:03:26.362Z,2.53
2022-11-19T19:05:54.334Z,2.33
2022-11-19T19:08:22.307Z,2.53
2022-11-19T19:10:50.324Z,2.40
2022-11-19T19:13:17.171Z,2.70
2022-11-19T19:15:45.084Z,2.67
2022-11-19T19:18:13.032Z,2.53
2022-11-19T19:20:42.389Z,2.60
2022-11-19T19:23:10.351Z,2.43
2022-11-19T19:25:38.304Z,2.73
2022-11-19T19:28:06.379Z,2.77
2022-11-19T19:30:34.308Z,2.10
2022-11-19T19:33:02.177Z,2.00
2022-11-19T19:35:30.090Z,2.80
2022-11-19T19:37:59.450Z,2.63
2022-11-19T19:40:27.533Z,2.60
2022-11-19T19:42:58.326Z,2.63
2022-11-19T19:45:26.456Z,2.20
2022-11-19T19:47:54.428Z,2.60
2022-11-19T19:50:22.358Z,3.60
2022-11-19T19:52:50.303Z,2.70
2022-11-19T19:55:19.765Z,2.10
2022-11-19T19:57:47.816Z,2.40
2022-11-19T20:00:16.421Z,2.50
2022-11-19T20:02:44.356Z,2.20
2022-11-19T20:05:12.254Z,2.40
2022-11-19T20:07:40.250Z,2.60
2022-11-19T20:10:08.954Z,2.50
2022-11-19T20:12:55.848Z,2.63
2022-11-19T20:15:23.960Z,2.70
2022-11-19T20:17:51.856Z,2.70
2022-11-19T20:20:19.917Z,2.90
2022-11-19T20:22:48.011Z,2.87
2022-11-19T20:25:15.918Z,3.43
2022-11-19T20:27:46.227Z,2.53
2022-11-19T20:30:14.618Z,3.63
2022-11-19T20:32:42.548Z,3.40
2022-11-19T20:35:10.499Z,2.73
2022-11-19T20:37:38.432Z,3.60
2022-11-19T20:40:06.813Z,2.93
2022-11-19T20:42:52.155Z,3.40
2022-11-19T20:45:22.179Z,2.60
2022-11-19T20:47:50.053Z,2.73
2022-11-19T20:50:18.679Z,2.43
2022-11-19T20:52:46.589Z,2.20
2022-11-19T20:55:14.556Z,2.80
2022-11-19T20:57:42.477Z,2.10
2022-11-19T21:00:11.048Z,1.93
2022-11-19T21:02:40.420Z,2.50
2022-11-19T21:05:08.653Z,2.20
2022-11-19T21:07:36.581Z,2.23
2022-11-19T21:10:07.884Z,2.33
2022-11-19T21:12:36.078Z,2.33
2022-11-19T21:15:04.009Z,2.20
2022-11-19T21:17:32.126Z,2.70
2022-11-19T21:20:01.538Z,2.40
2022-11-19T21:22:29.497Z,2.50
2022-11-19T21:24:57.422Z,2.37
2022-11-19T21:27:26.002Z,2.80
2022-11-19T21:29:54.180Z,1.70
2022-11-19T21:32:22.118Z,2.13
2022-11-19T21:34:50.074Z,2.03
2022-11-19T21:37:19.457Z,2.30
2022-11-19T21:39:47.364Z,2.40
2022-11-19T21:42:15.277Z,1.73
2022-11-19T21:44:43.323Z,2.40
2022-11-19T21:47:11.710Z,2.43
2022-11-19T21:49:39.605Z,1.70
2022-11-19T21:52:07.534Z,1.67
2022-11-19T21:54:36.904Z,1.87
2022-11-19T21:57:04.887Z,2.00
2022-11-19T21:59:32.829Z,2.03
2022-11-19T22:02:00.765Z,2.10
2022-11-19T22:04:28.701Z,1.90
2022-11-19T22:06:56.648Z,2.30
2022-11-19T22:09:24.583Z,2.20
2022-11-19T22:11:54.242Z,2.10
2022-11-19T22:14:22.249Z,2.33
2022-11-19T22:16:51.753Z,2.30
2022-11-19T22:19:19.912Z,2.63
2022-11-19T22:21:47.961Z,2.43
2022-11-19T22:24:16.060Z,2.30
2022-11-19T22:26:43.939Z,2.80
2022-11-19T22:29:13.270Z,2.73
2022-11-19T22:31:41.192Z,2.60
2022-11-19T22:34:12.828Z,2.10
2022-11-19T22:36:40.900Z,2.27
2022-11-19T22:39:09.179Z,2.30
2022-11-19T22:41:37.165Z,2.47
2022-11-19T22:44:06.074Z,2.43
2022-11-19T22:46:35.365Z,2.67
2022-11-19T22:49:03.337Z,2.87
2022-11-19T22:51:31.227Z,2.60
2022-11-19T22:53:59.199Z,3.00
2022-11-19T22:56:28.031Z,3.50
2022-11-19T22:58:56.185Z,2.50
2022-11-19T23:01:25.092Z,2.70
2022-11-19T23:03:55.015Z,2.90
2022-11-19T23:06:23.070Z,3.03
2022-11-19T23:08:51.009Z,2.80
2022-11-19T23:11:40.690Z,2.70
2022-11-19T23:14:08.316Z,2.60
2022-11-19T23:16:36.879Z,2.40
2022-11-19T23:19:06.549Z,2.47
2022-11-19T23:21:34.605Z,2.50
2022-11-19T23:24:03.039Z,2.20
2022-11-19T23:26:32.016Z,2.30
2022-11-19T23:29:00.082Z,2.90
2022-11-19T23:31:29.005Z,2.70
2022-11-19T23:33:59.295Z,2.80
2022-11-19T23:36:29.626Z,3.50
2022-11-19T23:38:57.606Z,2.73
2022-11-19T23:41:25.714Z,3.10
2022-11-19T23:43:54.145Z,3.00
2022-11-19T23:46:22.888Z,2.93
2022-11-19T23:48:51.192Z,3.43
2022-11-19T23:51:19.982Z,2.90
2022-11-19T23:53:49.820Z,2.63
2022-11-19T23:56:18.274Z,2.57
2022-11-19T23:58:46.388Z,3.33
